Highland Park, Pennsylvania
Current Conditions -  °F | °C
As of 9:30 PM on Wednesday 22 Oct 2014 (Local Time) from KPHL Reporting Station
Moderate Rain Moderate Rain  
Wind Chill: 53°   Ceiling: 5500
Heat Index: 53°   Visibility: 6mi
Dew Point: 49°   Wind: 15mph
Humidity: 86%   Direction: 340°NNW
Pressure: 29.83"   Gusts: NA
Location:  39.9602°N, 75.2702°W
Report Text: KPHL 230130Z 34013KT 6SM RA BR FEW014 SCT022 OVC055 12/09 A2983 RMK AO2 P0003 T01170094 $
Loading
Personal Weather Stations






























Interactive Weather Map
Tropical Storm Tracking
New forecast layout! Learn more

10-Day Weather Forecast

Advertisements
Track Severe Weather on mobile